Airfield :
LOGIN :

Register | Disclaimer

   EN    FR    IT 

 










Legend :    VFR   Marginal VFR   IFR   Intensive IFR   Very Intensive IFR
Visi :
Ceiling :
>= 8 km
>= 3000ft
5 to 8 km
1000 to 3000 ft
1500m to 5 km
500 to 1000 ft
800 to 1500m
200 to 500 ft
< 800m
< 200 ft
Symbols :   Thunderstorms  Fog  Heavy snow  Heavy precipitations  Wind > 20 kt
SIGMETs :     Misc.  Thunderstorms  Icing  Turbulence  Mountain Waves  Volcanic Ashes







- Airport Elevation : 45 ft
- IATA code : CEG
- Download approach charts


EGNR - Hawarden Chester

CURRENT METAR :
  • 191150Z 14007KT 110V170 5000 -DZ HZ BKN009 13/11 Q1002

EXPIRED METARs :
  • 191120Z 16010KT 7000 BKN009 13/11 Q1002
  • 191050Z 13008KT 6000 SCT005 BKN012 12/11 Q1003
  • 191020Z 13007KT 6000 SCT005 BKN012 12/11 Q1003
  • 190950Z 14008KT 7000 3000SW HZ SCT005 BKN012 12/10 Q1004
  • 190920Z 14009KT 7000 3000SW HZ SCT005 BKN012 12/11 Q1004

TAF TAF EGNR
Valid from the 19 at 12:00 until the 19 at 20:00 UTC


191101Z 1912/1920 15008KT 6000 FEW006 SCT012
TEMPO 1912/1915 4000 BR BKN006
BECMG 1915/1918 9999
PROB30
TEMPO 1915/1920 6000 -RA BKN012
No reported NOTAMs for that airfield.



MET'MAP, your aeronautical weather chart ! - Copyright ORBIFLY December 2007 - Disclaimer

ORBIFLY MET'MAP TEAM :

Programming & Development : Alexandra Zaïnal
Concept & Development : Baudouin d'Aumeries
Co-Development & Prog : Marc-Olivier Méhu
Technical & hardware support : Manuel Goepfert

Contact : metmap@orbifly.com




SOURCES & CREDITS :

   NOAA